Time;durP1;ratioP1;P1;durP2;ratioP2;P2;SDS_P1;SDS_P2;PMS_P1;PMS_P2;Temp;Humidity;BMP_temperature;BMP_pressure;BME280_temperature;BME280_humidity;BME280_pressure;Samples;Min_cycle;Max_cycle;Signal;HPM_P1;HPM_P2
2023/04/22 00:01:31;;;;;;;14.47;13.03;;;14.70;97.40;;;;;;4990387;28;20200;-81
2023/04/22 00:03:57;;;;;;;18.93;13.33;;;14.70;97.40;;;;;;4990719;28;20797;-81
2023/04/22 00:06:22;;;;;;;14.70;13.00;;;14.60;97.20;;;;;;4975534;28;20497;-88
2023/04/22 00:08:48;;;;;;;15.60;13.90;;;14.50;97.90;;;;;;4975084;28;20181;-89
2023/04/22 00:11:14;;;;;;;14.70;12.63;;;14.50;98.40;;;;;;4990762;28;20579;-82
2023/04/22 00:13:40;;;;;;;16.00;13.77;;;14.50;98.40;;;;;;4989640;28;20188;-87
2023/04/22 00:16:05;;;;;;;15.50;13.13;;;14.40;98.70;;;;;;4974514;28;20418;-82
2023/04/22 00:18:35;;;;;;;14.30;12.90;;;14.20;99.00;;;;;;4989513;28;20537;-86
2023/04/22 00:21:01;;;;;;;15.00;12.87;;;14.20;98.80;;;;;;4974482;28;20327;-87
2023/04/22 00:23:26;;;;;;;15.50;13.80;;;14.10;99.00;;;;;;4976317;28;20401;-82
2023/04/22 00:25:52;;;;;;;15.87;14.23;;;14.00;99.60;;;;;;4978197;28;20427;-81
2023/04/22 00:28:18;;;;;;;14.40;12.90;;;14.00;99.90;;;;;;4978200;28;20269;-87
2023/04/22 00:30:44;;;;;;;17.00;13.13;;;14.00;99.90;;;;;;4993131;28;20756;-83
2023/04/22 00:33:09;;;;;;;15.20;13.67;;;13.90;99.90;;;;;;4993165;28;20947;-82
2023/04/22 00:35:35;;;;;;;17.50;13.30;;;13.80;99.90;;;;;;4978669;28;20733;-87
2023/04/22 00:38:01;;;;;;;16.00;13.73;;;13.70;99.90;;;;;;4978009;28;20234;-81
2023/04/22 00:40:27;;;;;;;20.83;14.43;;;13.60;99.90;;;;;;4978061;28;20200;-87
2023/04/22 00:42:54;;;;;;;16.70;14.87;;;13.60;99.90;;;;;;4976880;28;20180;-82
2023/04/22 00:45:20;;;;;;;18.03;14.40;;;13.50;99.90;;;;;;4978362;28;20537;-82
2023/04/22 00:47:47;;;;;;;18.10;16.17;;;13.40;99.90;;;;;;4993203;28;20979;-86
2023/04/22 00:50:14;;;;;;;16.10;14.40;;;13.40;99.90;;;;;;4978277;28;20438;-81
2023/04/22 00:52:41;;;;;;;16.07;14.37;;;13.30;99.90;;;;;;4978024;28;20429;-86
2023/04/22 00:55:07;;;;;;;17.47;14.70;;;13.30;99.90;;;;;;4978308;28;20803;-87
2023/04/22 00:57:34;;;;;;;15.70;13.20;;;13.30;99.90;;;;;;4978134;28;20461;-82
2023/04/22 01:00:00;;;;;;;16.00;14.30;;;13.30;99.90;;;;;;4978583;28;20442;-86
2023/04/22 01:02:27;;;;;;;16.70;14.90;;;13.20;99.90;;;;;;4993461;28;20861;-81
2023/04/22 01:04:53;;;;;;;16.67;14.93;;;13.10;99.90;;;;;;4977805;28;20445;-82
2023/04/22 01:07:20;;;;;;;16.70;14.90;;;13.10;99.90;;;;;;4977458;28;20493;-81
2023/04/22 01:09:46;;;;;;;17.80;14.43;;;13.00;99.90;;;;;;4977867;28;20193;-81
2023/04/22 01:12:12;;;;;;;16.60;14.87;;;13.00;99.90;;;;;;4977597;28;20739;-86
2023/04/22 01:14:38;;;;;;;17.07;15.17;;;12.90;99.90;;;;;;4992537;28;20445;-87
2023/04/22 01:17:05;;;;;;;18.67;16.63;;;12.90;99.90;;;;;;4977433;28;20403;-84
2023/04/22 01:19:31;;;;;;;19.88;15.38;;;12.80;99.90;;;;;;4977594;28;20797;-82
2023/04/22 01:21:59;;;;;;;16.30;14.20;;;12.80;99.90;;;;;;4977202;28;20271;-82
2023/04/22 01:24:26;;;;;;;19.58;16.08;;;12.80;99.90;;;;;;4977238;28;20814;-82
2023/04/22 01:26:52;;;;;;;21.58;14.52;;;12.80;99.90;;;;;;4977230;28;20216;-82
2023/04/22 01:29:19;;;;;;;16.90;15.20;;;12.70;99.90;;;;;;4992215;28;20220;-87
2023/04/22 01:31:46;;;;;;;18.30;14.93;;;12.70;99.90;;;;;;4992147;28;20189;-82
2023/04/22 01:34:11;;;;;;;18.95;15.98;;;12.70;99.90;;;;;;4977097;28;20181;-82
2023/04/22 01:36:37;;;;;;;17.03;15.03;;;12.70;99.90;;;;;;4992068;28;20192;-82
2023/04/22 01:39:03;;;;;;;20.83;17.00;;;12.60;99.90;;;;;;4976931;28;20232;-82
2023/04/22 01:41:29;;;;;;;20.37;16.70;;;12.60;99.90;;;;;;4991918;28;20662;-82
2023/04/22 01:43:57;;;;;;;20.97;15.93;;;12.50;99.90;;;;;;4992199;28;20654;-82
2023/04/22 01:46:23;;;;;;;19.35;16.05;;;12.60;99.90;;;;;;4976990;28;20454;-82
2023/04/22 01:48:50;;;;;;;19.60;15.73;;;12.60;99.90;;;;;;4977117;28;20335;-82
2023/04/22 01:51:19;;;;;;;19.13;16.80;;;12.60;99.90;;;;;;4977112;28;20189;-82
2023/04/22 01:53:47;;;;;;;18.00;16.10;;;12.50;99.90;;;;;;4976858;28;20259;-87
2023/04/22 01:56:13;;;;;;;18.02;16.00;;;12.60;99.90;;;;;;4991713;28;20594;-82
2023/04/22 01:58:40;;;;;;;24.27;18.35;;;12.60;99.90;;;;;;4976929;28;20187;-81
2023/04/22 02:01:08;;;;;;;17.10;15.30;;;12.60;99.90;;;;;;4991553;28;20201;-87
2023/04/22 02:03:33;;;;;;;19.45;17.13;;;12.50;99.90;;;;;;4991682;28;20195;-82
2023/04/22 02:05:59;;;;;;;22.43;17.43;;;12.50;99.90;;;;;;4991352;28;20584;-84
2023/04/22 02:08:25;;;;;;;22.40;16.97;;;12.50;99.90;;;;;;4991440;28;20184;-82
2023/04/22 02:10:50;;;;;;;22.47;17.03;;;12.40;99.90;;;;;;4976514;28;20418;-82
2023/04/22 02:13:17;;;;;;;20.87;16.80;;;12.40;99.90;;;;;;4976483;28;20713;-86
2023/04/22 02:15:43;;;;;;;19.17;16.05;;;12.40;99.90;;;;;;4991321;28;20670;-87
2023/04/22 02:18:11;;;;;;;18.73;16.27;;;12.40;99.90;;;;;;4975284;28;20183;-85
2023/04/22 02:20:37;;;;;;;18.88;16.55;;;12.40;99.90;;;;;;4976788;28;20693;-82
2023/04/22 02:23:04;;;;;;;19.27;16.53;;;12.40;99.90;;;;;;4976240;28;20279;-82
2023/04/22 02:25:30;;;;;;;18.00;16.13;;;12.40;99.90;;;;;;4991074;28;20608;-86
2023/04/22 02:27:57;;;;;;;16.98;15.15;;;12.40;99.90;;;;;;4974973;28;20596;-86
2023/04/22 02:30:23;;;;;;;18.60;15.55;;;12.50;99.90;;;;;;4976593;28;20645;-87
2023/04/22 02:32:48;;;;;;;18.33;15.40;;;12.50;99.90;;;;;;4976143;28;20176;-82
2023/04/22 02:35:14;;;;;;;19.70;17.60;;;12.40;99.90;;;;;;4991036;28;20271;-85
2023/04/22 02:37:40;;;;;;;21.13;15.60;;;12.50;99.90;;;;;;4975979;28;20188;-86
2023/04/22 02:40:06;;;;;;;18.07;16.13;;;12.50;99.90;;;;;;4976084;28;20553;-87
2023/04/22 02:42:32;;;;;;;18.17;16.08;;;12.50;99.90;;;;;;4976859;28;20172;-82
2023/04/22 02:44:58;;;;;;;18.30;15.73;;;12.40;99.90;;;;;;4975587;28;20215;-82
2023/04/22 02:47:24;;;;;;;18.80;16.30;;;12.50;99.90;;;;;;4990402;28;20465;-85
2023/04/22 02:49:49;;;;;;;25.37;18.67;;;12.50;99.90;;;;;;4975942;28;20465;-82
2023/04/22 02:52:15;;;;;;;19.97;17.27;;;12.50;99.90;;;;;;4990720;28;20803;-86
2023/04/22 02:54:42;;;;;;;17.30;13.90;;;12.50;99.90;;;;;;4990676;28;20287;-87
2023/04/22 02:57:08;;;;;;;20.63;16.05;;;12.50;99.90;;;;;;4990578;28;20418;-81
2023/04/22 02:59:35;;;;;;;19.97;16.50;;;12.40;99.90;;;;;;4975699;28;20255;-86
2023/04/22 03:02:02;;;;;;;20.98;17.88;;;12.40;99.90;;;;;;4974322;28;20422;-86
2023/04/22 03:04:27;;;;;;;18.73;15.65;;;12.40;99.90;;;;;;4990713;28;20673;-87
2023/04/22 03:06:53;;;;;;;20.07;15.00;;;12.40;99.90;;;;;;4990341;28;20204;-85
2023/04/22 03:09:19;;;;;;;17.87;15.70;;;12.40;99.90;;;;;;4975702;28;20458;-87
2023/04/22 03:11:45;;;;;;;19.63;14.80;;;12.40;99.90;;;;;;4990404;28;20677;-82
2023/04/22 03:14:11;;;;;;;20.90;15.93;;;12.40;99.90;;;;;;4990076;28;20188;-87
2023/04/22 03:16:36;;;;;;;17.93;15.37;;;12.30;99.90;;;;;;4990285;28;20180;-85
2023/04/22 03:19:02;;;;;;;16.97;14.90;;;12.40;99.90;;;;;;4975337;28;20184;-86
2023/04/22 03:21:28;;;;;;;26.00;16.38;;;12.30;99.90;;;;;;4990127;28;20207;-87
2023/04/22 03:23:54;;;;;;;18.67;16.67;;;12.30;99.90;;;;;;4975377;28;20627;-82
2023/04/22 03:26:20;;;;;;;23.30;19.90;;;12.30;99.90;;;;;;4989992;28;20211;-87
2023/04/22 03:28:46;;;;;;;23.77;21.17;;;12.30;99.90;;;;;;4990043;28;20191;-87
2023/04/22 03:31:12;;;;;;;30.27;25.13;;;12.30;99.90;;;;;;4975118;28;20713;-86
2023/04/22 03:33:38;;;;;;;27.55;24.52;;;12.20;99.90;;;;;;4973861;28;20212;-82
2023/04/22 03:36:04;;;;;;;30.97;24.90;;;12.20;99.90;;;;;;4990632;28;20200;-81
2023/04/22 03:38:29;;;;;;;27.53;23.33;;;12.20;99.90;;;;;;4974803;28;20235;-81
2023/04/22 03:40:55;;;;;;;31.10;27.57;;;12.20;99.90;;;;;;4989902;28;20959;-86
2023/04/22 03:43:21;;;;;;;31.50;26.80;;;12.20;99.90;;;;;;4974983;28;20176;-85
2023/04/22 03:45:47;;;;;;;33.13;28.60;;;12.20;99.90;;;;;;4989908;28;20228;-87
2023/04/22 03:48:15;;;;;;;59.05;45.13;;;12.20;99.90;;;;;;4989829;28;20979;-85
2023/04/22 03:50:41;;;;;;;87.57;61.75;;;12.20;99.90;;;;;;4975074;28;20205;-87
2023/04/22 03:53:07;;;;;;;83.60;58.97;;;12.10;99.90;;;;;;4974840;28;20200;-85
2023/04/22 03:55:33;;;;;;;70.45;56.20;;;12.00;99.90;;;;;;4975315;28;20207;-82
2023/04/22 03:57:59;;;;;;;62.53;50.00;;;12.00;99.90;;;;;;4991107;28;20188;-80
2023/04/22 04:00:25;;;;;;;50.90;44.30;;;12.00;99.90;;;;;;4993911;28;20208;-82
2023/04/22 04:02:51;;;;;;;31.47;26.57;;;12.00;99.90;;;;;;4993787;28;20212;-82
2023/04/22 04:05:18;;;;;;;22.88;19.38;;;12.00;99.90;;;;;;4979327;28;20440;-87
2023/04/22 04:07:44;;;;;;;21.90;17.02;;;12.00;99.90;;;;;;4993643;28;20638;-81
2023/04/22 04:10:10;;;;;;;26.33;23.30;;;12.00;99.90;;;;;;4993564;28;20227;-86
2023/04/22 04:12:37;;;;;;;24.45;20.85;;;12.00;99.90;;;;;;4993775;28;20435;-87
2023/04/22 04:15:03;;;;;;;20.40;18.20;;;12.00;99.90;;;;;;4993737;28;20572;-86
2023/04/22 04:17:29;;;;;;;20.20;17.85;;;12.10;99.90;;;;;;4993913;28;20191;-85
2023/04/22 04:19:55;;;;;;;18.50;16.60;;;12.00;99.90;;;;;;4979256;28;20201;-81
2023/04/22 04:22:21;;;;;;;17.40;14.70;;;12.00;99.90;;;;;;4979436;28;20482;-80
2023/04/22 04:24:47;;;;;;;17.88;15.60;;;12.00;99.90;;;;;;4993491;28;20207;-81
2023/04/22 04:27:13;;;;;;;21.77;15.77;;;12.10;99.90;;;;;;4993607;28;20234;-86
2023/04/22 04:29:40;;;;;;;17.70;14.90;;;12.10;99.90;;;;;;4978104;28;20208;-81
2023/04/22 04:32:09;;;;;;;16.90;13.50;;;12.10;99.90;;;;;;4977051;28;20514;-81
2023/04/22 04:34:36;;;;;;;18.70;14.05;;;12.10;99.90;;;;;;4993262;28;20262;-86
2023/04/22 04:37:02;;;;;;;18.95;13.93;;;12.10;99.90;;;;;;4978028;28;20181;-86
2023/04/22 04:39:28;;;;;;;16.97;14.20;;;12.10;99.90;;;;;;4977898;28;20298;-81
2023/04/22 04:41:54;;;;;;;15.83;13.93;;;12.10;99.90;;;;;;4978122;28;20425;-86
2023/04/22 04:44:25;;;;;;;18.10;15.95;;;12.10;99.90;;;;;;4993025;28;20441;-81
2023/04/22 04:46:51;;;;;;;21.27;14.38;;;12.20;99.90;;;;;;4993201;28;20255;-81
2023/04/22 04:49:16;;;;;;;16.60;14.57;;;12.20;99.90;;;;;;4993055;28;20207;-87
2023/04/22 04:51:42;;;;;;;20.23;13.80;;;12.30;99.90;;;;;;4978053;28;20402;-81
2023/04/22 04:54:08;;;;;;;15.47;13.90;;;12.30;99.90;;;;;;4978132;28;20654;-82
2023/04/22 04:56:34;;;;;;;14.10;12.70;;;12.40;99.90;;;;;;4977883;28;20442;-83
2023/04/22 04:59:00;;;;;;;14.10;12.43;;;12.40;99.90;;;;;;4977865;28;20188;-87
2023/04/22 05:01:25;;;;;;;14.33;12.90;;;12.50;99.90;;;;;;4992643;28;20446;-86
2023/04/22 05:03:51;;;;;;;15.77;13.07;;;12.60;99.90;;;;;;4992721;28;20323;-85
2023/04/22 05:06:17;;;;;;;15.60;12.97;;;12.60;99.90;;;;;;4977524;28;20236;-81
2023/04/22 05:08:43;;;;;;;14.73;12.97;;;12.70;99.90;;;;;;4975923;28;20518;-86
2023/04/22 05:11:08;;;;;;;17.00;12.77;;;12.80;99.90;;;;;;4992544;28;20201;-86
2023/04/22 05:13:34;;;;;;;13.20;11.90;;;12.90;99.90;;;;;;4978012;28;20414;-82
2023/04/22 05:15:59;;;;;;;12.77;11.47;;;12.90;99.90;;;;;;4992871;28;20672;-86
2023/04/22 05:18:25;;;;;;;13.50;11.90;;;13.10;99.90;;;;;;4977421;28;20200;-81
2023/04/22 05:20:51;;;;;;;13.70;12.37;;;13.10;99.90;;;;;;4992819;28;20283;-81
2023/04/22 05:23:17;;;;;;;15.90;11.90;;;13.20;99.80;;;;;;4977560;28;20180;-82
2023/04/22 05:25:42;;;;;;;13.80;11.73;;;13.30;99.70;;;;;;4977936;28;20198;-86
2023/04/22 05:28:08;;;;;;;15.47;12.33;;;13.40;99.60;;;;;;4992962;28;20216;-81
2023/04/22 05:30:34;;;;;;;16.70;11.63;;;13.40;99.80;;;;;;4992023;28;20208;-82
2023/04/22 05:33:00;;;;;;;13.97;12.00;;;13.60;99.70;;;;;;4992154;28;20411;-82
2023/04/22 05:35:26;;;;;;;14.63;12.70;;;13.70;99.90;;;;;;4992363;28;20778;-82
2023/04/22 05:37:52;;;;;;;14.10;12.10;;;13.80;99.90;;;;;;4976970;28;20654;-81
2023/04/22 05:40:18;;;;;;;13.97;11.80;;;13.90;99.80;;;;;;4992152;28;20207;-82
2023/04/22 05:42:43;;;;;;;12.87;11.27;;;14.00;99.30;;;;;;4977003;28;20169;-80
2023/04/22 05:45:10;;;;;;;18.37;11.60;;;14.10;99.10;;;;;;4977220;28;20438;-86
2023/04/22 05:47:35;;;;;;;20.83;12.13;;;14.20;99.40;;;;;;4991850;28;20315;-81
2023/04/22 05:50:02;;;;;;;15.60;12.73;;;14.20;99.20;;;;;;4991969;28;20542;-87
2023/04/22 05:52:28;;;;;;;15.50;12.30;;;14.30;99.30;;;;;;4991740;28;20266;-82
2023/04/22 05:54:53;;;;;;;18.57;13.13;;;14.40;99.10;;;;;;4976651;28;20533;-86
2023/04/22 05:57:19;;;;;;;14.83;12.30;;;14.50;99.30;;;;;;4976621;28;20588;-84
2023/04/22 05:59:45;;;;;;;16.80;13.20;;;14.60;99.40;;;;;;4991521;28;20219;-82
2023/04/22 06:02:11;;;;;;;15.27;11.83;;;14.60;99.40;;;;;;4976798;28;20721;-85
2023/04/22 06:04:36;;;;;;;17.23;12.80;;;14.70;99.00;;;;;;4991684;28;20624;-82
2023/04/22 06:07:03;;;;;;;16.03;12.00;;;14.90;98.90;;;;;;4975261;28;20482;-82
2023/04/22 06:09:28;;;;;;;11.83;10.63;;;15.00;98.90;;;;;;4991125;28;20212;-82
2023/04/22 06:11:55;;;;;;;16.50;11.40;;;15.10;99.00;;;;;;4976552;28;20934;-86
2023/04/22 06:14:21;;;;;;;12.37;11.17;;;15.10;98.80;;;;;;4976665;28;20180;-86
2023/04/22 06:16:46;;;;;;;15.83;12.00;;;15.30;98.50;;;;;;4976514;28;20402;-86
2023/04/22 06:19:12;;;;;;;13.73;10.50;;;15.40;98.20;;;;;;4991208;28;20195;-87
2023/04/22 06:21:39;;;;;;;11.93;10.73;;;15.40;98.60;;;;;;4975478;28;20640;-82
2023/04/22 06:24:05;;;;;;;13.03;11.43;;;15.60;98.40;;;;;;4991268;28;20192;-85
2023/04/22 06:26:31;;;;;;;14.40;10.10;;;15.60;98.10;;;;;;4974879;28;20497;-84
2023/04/22 06:28:56;;;;;;;14.83;10.60;;;15.70;98.20;;;;;;4976463;28;20427;-85
2023/04/22 06:31:22;;;;;;;14.20;10.73;;;15.80;98.00;;;;;;4976356;28;20658;-88
2023/04/22 06:33:48;;;;;;;11.63;10.43;;;15.90;98.00;;;;;;4977430;28;20296;-82
2023/04/22 06:36:13;;;;;;;12.77;11.47;;;15.90;98.10;;;;;;4992237;28;20358;-86
2023/04/22 06:38:39;;;;;;;11.90;9.90;;;16.00;98.20;;;;;;4991630;28;20247;-81
2023/04/22 06:41:05;;;;;;;12.13;10.57;;;16.10;98.10;;;;;;4975799;28;20245;-82
2023/04/22 06:43:31;;;;;;;12.63;11.33;;;16.30;98.20;;;;;;4975920;28;20177;-86
2023/04/22 06:45:56;;;;;;;16.60;11.90;;;16.40;98.30;;;;;;4975676;28;20189;-86
2023/04/22 06:48:23;;;;;;;14.00;11.83;;;16.50;98.20;;;;;;4975777;28;20208;-82
2023/04/22 06:50:49;;;;;;;18.23;11.93;;;16.60;98.30;;;;;;4975698;28;20967;-85
2023/04/22 06:53:14;;;;;;;14.53;11.20;;;16.70;98.10;;;;;;4975608;28;20407;-81
2023/04/22 06:55:40;;;;;;;12.60;11.27;;;16.80;98.00;;;;;;4975556;28;20220;-82
2023/04/22 06:58:06;;;;;;;12.13;10.77;;;16.90;97.90;;;;;;4975578;28;20176;-82
2023/04/22 07:00:31;;;;;;;13.93;11.40;;;17.00;97.80;;;;;;4975303;28;20251;-82
2023/04/22 07:02:57;;;;;;;16.60;12.13;;;17.10;97.90;;;;;;4990442;28;20215;-84
2023/04/22 07:05:23;;;;;;;14.97;11.33;;;17.20;97.40;;;;;;4975978;28;20212;-82
2023/04/22 07:07:49;;;;;;;15.47;11.73;;;17.30;97.40;;;;;;4975396;28;20462;-84
2023/04/22 07:10:14;;;;;;;16.33;11.53;;;17.50;97.60;;;;;;4975742;28;20290;-85
2023/04/22 07:12:40;;;;;;;11.83;10.70;;;17.60;97.60;;;;;;4975401;28;20263;-82
2023/04/22 07:15:07;;;;;;;12.03;10.80;;;17.70;97.30;;;;;;4975631;28;20203;-82
2023/04/22 07:17:33;;;;;;;15.07;11.43;;;17.80;97.40;;;;;;4990309;28;20177;-82
2023/04/22 07:19:58;;;;;;;13.33;10.87;;;17.80;97.40;;;;;;4990543;28;20469;-86
2023/04/22 07:22:25;;;;;;;16.43;12.10;;;18.00;97.30;;;;;;4975375;28;20513;-85
2023/04/22 07:24:51;;;;;;;12.27;11.07;;;18.10;96.90;;;;;;4990230;28;20458;-86
2023/04/22 07:27:17;;;;;;;13.20;11.03;;;18.20;96.60;;;;;;4975070;28;20216;-82
2023/04/22 07:29:43;;;;;;;11.47;10.37;;;18.30;96.90;;;;;;4990066;28;20556;-82
2023/04/22 07:32:08;;;;;;;12.10;10.90;;;18.40;96.70;;;;;;4975063;28;20458;-82
2023/04/22 07:34:34;;;;;;;14.00;11.10;;;18.50;96.70;;;;;;4990026;28;20287;-83
2023/04/22 07:37:00;;;;;;;13.60;12.30;;;18.60;97.00;;;;;;4975629;28;20264;-82
2023/04/22 07:39:26;;;;;;;12.33;11.13;;;18.70;96.90;;;;;;4975389;28;20229;-82
2023/04/22 07:41:52;;;;;;;11.40;10.20;;;18.80;97.00;;;;;;4974947;28;20407;-86
2023/04/22 07:44:20;;;;;;;12.93;11.43;;;19.00;96.70;;;;;;4990083;28;20442;-86
2023/04/22 07:46:47;;;;;;;14.53;12.37;;;19.10;96.10;;;;;;4989377;28;20478;-82
2023/04/22 07:49:13;;;;;;;13.63;10.67;;;19.20;96.60;;;;;;4974306;28;20473;-82
2023/04/22 07:51:39;;;;;;;18.17;14.50;;;19.30;96.50;;;;;;4989846;28;20423;-86
2023/04/22 07:54:05;;;;;;;16.27;12.27;;;19.40;96.30;;;;;;4989726;28;20427;-82
2023/04/22 07:56:31;;;;;;;14.23;11.47;;;19.60;96.30;;;;;;4989674;28;20447;-82
2023/04/22 07:58:57;;;;;;;13.87;12.40;;;19.70;96.00;;;;;;4989591;28;20933;-83
2023/04/22 08:01:22;;;;;;;15.43;11.67;;;19.80;96.00;;;;;;4974417;28;20448;-82
2023/04/22 08:03:48;;;;;;;12.40;10.53;;;19.90;95.70;;;;;;4987440;28;20215;-86
2023/04/22 08:06:14;;;;;;;14.47;12.40;;;20.00;95.70;;;;;;4987100;28;20200;-86
2023/04/22 08:08:40;;;;;;;11.37;10.03;;;20.10;95.60;;;;;;4971210;28;20223;-86
2023/04/22 08:11:06;;;;;;;11.97;10.87;;;20.20;96.00;;;;;;4971158;28;20617;-87
2023/04/22 08:13:32;;;;;;;16.90;11.50;;;20.40;95.60;;;;;;4987426;28;20207;-86
2023/04/22 08:15:59;;;;;;;12.17;10.67;;;20.50;95.50;;;;;;4987275;28;20438;-83
2023/04/22 08:18:25;;;;;;;11.00;9.90;;;20.60;95.20;;;;;;4973948;28;20418;-82
2023/04/22 08:20:51;;;;;;;12.07;10.77;;;20.70;93.90;;;;;;4973241;28;20525;-82
2023/04/22 08:23:17;;;;;;;12.13;10.50;;;20.80;94.40;;;;;;4974577;28;20266;-86
2023/04/22 08:25:42;;;;;;;15.23;11.80;;;20.90;94.30;;;;;;4989459;28;20204;-83
2023/04/22 08:28:08;;;;;;;11.90;9.27;;;21.10;94.20;;;;;;4989356;28;20219;-85
2023/04/22 08:30:34;;;;;;;13.50;9.47;;;21.20;93.70;;;;;;4974947;28;20200;-87
2023/04/22 08:33:00;;;;;;;9.60;8.70;;;21.30;93.40;;;;;;4989444;28;20651;-82
2023/04/22 08:35:25;;;;;;;10.13;9.23;;;21.40;93.20;;;;;;4975088;28;20650;-83
2023/04/22 08:37:52;;;;;;;11.53;9.53;;;21.50;92.60;;;;;;4973257;28;20191;-86
2023/04/22 08:40:17;;;;;;;10.90;9.80;;;21.60;92.70;;;;;;4990573;28;20609;-82
2023/04/22 08:42:44;;;;;;;11.10;10.00;;;21.80;92.10;;;;;;4975493;28;20914;-83
2023/04/22 08:45:10;;;;;;;13.03;9.60;;;21.90;92.30;;;;;;4992168;28;20204;-86
2023/04/22 08:47:38;;;;;;;10.73;9.73;;;22.00;92.10;;;;;;4992797;28;20478;-84
2023/04/22 08:50:05;;;;;;;10.03;9.03;;;22.10;92.20;;;;;;4992959;28;20200;-83
2023/04/22 08:52:30;;;;;;;17.07;9.90;;;22.20;91.80;;;;;;4976799;28;20420;-82
2023/04/22 08:54:57;;;;;;;11.40;10.30;;;22.40;92.40;;;;;;4978120;28;20528;-87
2023/04/22 08:57:23;;;;;;;14.17;9.87;;;22.80;92.10;;;;;;4976642;28;20224;-83
2023/04/22 08:59:50;;;;;;;10.67;9.77;;;23.40;91.20;;;;;;4976577;28;20477;-84
2023/04/22 09:02:20;;;;;;;12.63;9.37;;;24.00;90.60;;;;;;4992722;28;20688;-82
2023/04/22 09:04:48;;;;;;;12.27;9.03;;;24.50;88.80;;;;;;4977687;28;21000;-83
2023/04/22 09:07:25;;;;;;;10.10;9.30;;;24.90;88.70;;;;;;4992368;28;20553;-86
2023/04/22 09:09:53;;;;;;;10.73;9.00;;;25.20;87.90;;;;;;4992646;28;20447;-87
2023/04/22 09:12:19;;;;;;;9.87;8.90;;;25.20;86.90;;;;;;4992605;28;20433;-83
2023/04/22 09:14:45;;;;;;;10.37;9.37;;;25.20;86.50;;;;;;4977472;28;20457;-86
2023/04/22 09:17:15;;;;;;;9.27;8.40;;;25.10;86.30;;;;;;4994679;28;20183;-86
2023/04/22 09:19:41;;;;;;;8.00;7.20;;;25.00;87.10;;;;;;4994501;28;20440;-83
2023/04/22 09:22:13;;;;;;;8.90;8.00;;;24.90;85.50;;;;;;4994152;28;20401;-85
2023/04/22 09:24:52;;;;;;;8.50;7.50;;;24.90;84.60;;;;;;4994695;28;20206;-83
2023/04/22 09:27:21;;;;;;;8.10;7.17;;;24.80;84.20;;;;;;4992929;28;20460;-87
2023/04/22 09:29:51;;;;;;;8.53;7.73;;;24.70;83.00;;;;;;4991322;28;20452;-87
2023/04/22 09:32:17;;;;;;;7.67;7.07;;;24.60;83.60;;;;;;4992779;28;20949;-83
2023/04/22 09:34:51;;;;;;;8.43;7.63;;;24.60;82.60;;;;;;4993387;28;20445;-82
2023/04/22 09:37:24;;;;;;;8.63;7.83;;;24.50;81.30;;;;;;4993261;28;20979;-83
2023/04/22 09:39:50;;;;;;;6.80;6.10;;;24.50;82.60;;;;;;4994160;28;20474;-83
2023/04/22 09:42:21;;;;;;;7.17;6.57;;;24.40;84.60;;;;;;4993020;28;20426;-83
2023/04/22 09:44:51;;;;;;;9.60;8.60;;;24.40;82.30;;;;;;4994490;28;20431;-86
2023/04/22 09:47:17;;;;;;;8.17;6.90;;;24.30;84.00;;;;;;4993257;28;20495;-82
2023/04/22 09:49:48;;;;;;;6.23;5.67;;;24.30;83.80;;;;;;4992948;28;20440;-86
2023/04/22 09:52:23;;;;;;;7.17;6.53;;;24.30;83.30;;;;;;4991622;28;20452;-86
2023/04/22 09:54:50;;;;;;;8.70;6.67;;;24.20;79.10;;;;;;4992909;28;20483;-86
2023/04/22 09:57:16;;;;;;;7.60;7.00;;;24.20;83.50;;;;;;4990374;28;20452;-82
2023/04/22 09:59:42;;;;;;;8.00;6.40;;;24.20;81.50;;;;;;4978680;28;20553;-86
2023/04/22 10:02:09;;;;;;;6.60;5.90;;;24.10;83.60;;;;;;4975445;28;21073;-88
2023/04/22 10:04:35;;;;;;;7.10;6.00;;;24.10;79.00;;;;;;4974402;28;20444;-83
2023/04/22 10:07:04;;;;;;;7.50;5.80;;;24.30;80.20;;;;;;4974298;28;21057;-86
2023/04/22 10:09:30;;;;;;;8.17;7.27;;;24.40;77.70;;;;;;4975442;28;20497;-83
2023/04/22 10:11:59;;;;;;;7.00;6.40;;;24.50;80.80;;;;;;4974154;28;20915;-83
2023/04/22 10:14:25;;;;;;;6.77;6.10;;;24.60;76.00;;;;;;4973259;28;20434;-83
2023/04/22 10:16:58;;;;;;;6.73;6.13;;;24.70;76.70;;;;;;4972861;28;20488;-82
2023/04/22 10:19:27;;;;;;;6.43;5.83;;;24.80;75.80;;;;;;4972769;28;20436;-85
2023/04/22 10:21:58;;;;;;;6.70;6.07;;;24.80;77.70;;;;;;4971909;28;20416;-82
2023/04/22 10:24:28;;;;;;;7.43;6.73;;;24.80;71.10;;;;;;4971830;28;20491;-83
2023/04/22 10:27:00;;;;;;;8.10;6.20;;;24.90;71.80;;;;;;4972215;28;20470;-83
2023/04/22 10:29:34;;;;;;;6.27;5.63;;;24.90;72.90;;;;;;4973501;28;20422;-83
2023/04/22 10:32:10;;;;;;;6.40;5.80;;;24.90;74.60;;;;;;4976196;28;20478;-83
2023/04/22 10:34:37;;;;;;;7.23;5.50;;;24.80;72.80;;;;;;4974853;28;21008;-87
2023/04/22 10:37:10;;;;;;;6.50;5.90;;;24.70;72.50;;;;;;4974801;28;20473;-83
2023/04/22 10:39:37;;;;;;;6.27;5.67;;;24.70;74.20;;;;;;4974619;28;20844;-86
2023/04/22 10:42:05;;;;;;;8.17;5.73;;;24.60;74.20;;;;;;4976070;28;20496;-87
2023/04/22 10:44:54;;;;;;;8.43;6.33;;;24.50;75.80;;;;;;4974642;28;20456;-87
2023/04/22 10:47:28;;;;;;;10.33;6.40;;;24.40;78.70;;;;;;4974506;28;20564;-83
2023/04/22 10:50:17;;;;;;;8.37;6.90;;;24.60;76.60;;;;;;4974615;28;20927;-83
2023/04/22 10:52:45;;;;;;;7.30;6.10;;;24.60;76.10;;;;;;4974587;28;20416;-83
2023/04/22 10:55:13;;;;;;;7.00;6.30;;;24.60;74.40;;;;;;4976052;28;20777;-87
2023/04/22 10:57:44;;;;;;;7.40;6.47;;;24.60;74.30;;;;;;4974448;28;20466;-86
2023/04/22 11:00:28;;;;;;;6.90;6.20;;;24.50;72.80;;;;;;4974578;28;20453;-82
2023/04/22 11:03:12;;;;;;;6.63;6.03;;;24.40;77.80;;;;;;4974311;28;20464;-87
2023/04/22 11:05:39;;;;;;;6.17;5.67;;;24.40;76.50;;;;;;4974444;28;20962;-87
2023/04/22 11:08:15;;;;;;;6.43;5.83;;;24.40;77.60;;;;;;4974913;28;21006;-83
2023/04/22 11:10:50;;;;;;;6.40;5.90;;;24.50;74.00;;;;;;4976239;28;20942;-87
2023/04/22 11:13:20;;;;;;;7.73;6.77;;;24.60;73.60;;;;;;4974670;28;20425;-83
2023/04/22 11:15:52;;;;;;;6.47;5.90;;;24.80;74.40;;;;;;4974060;28;20468;-83
2023/04/22 11:18:24;;;;;;;6.10;5.60;;;24.90;76.90;;;;;;4973989;28;20472;-83
2023/04/22 11:20:52;;;;;;;8.57;6.27;;;24.80;77.50;;;;;;4975210;28;20439;-87
2023/04/22 11:23:26;;;;;;;6.57;6.00;;;24.80;74.50;;;;;;4974014;28;20968;-86
2023/04/22 11:25:56;;;;;;;9.47;6.30;;;24.60;76.30;;;;;;4974005;28;20444;-87
2023/04/22 11:28:22;;;;;;;7.10;6.30;;;24.50;76.10;;;;;;4973929;28;20479;-83
2023/04/22 11:30:48;;;;;;;9.47;6.53;;;24.30;74.20;;;;;;4975157;28;20432;-82
2023/04/22 11:33:15;;;;;;;6.90;6.30;;;24.20;73.20;;;;;;4974030;28;20307;-86
2023/04/22 11:35:41;;;;;;;7.37;6.57;;;24.00;75.60;;;;;;4973923;28;20475;-83
2023/04/22 11:38:08;;;;;;;10.73;5.97;;;23.90;74.00;;;;;;4973468;28;20452;-87
2023/04/22 11:40:36;;;;;;;6.77;6.10;;;23.80;74.50;;;;;;4974919;28;20451;-87
2023/04/22 11:43:04;;;;;;;7.10;5.67;;;23.70;73.90;;;;;;4973827;28;20424;-88
2023/04/22 11:45:31;;;;;;;6.83;6.23;;;23.80;70.30;;;;;;4974055;28;20456;-83
2023/04/22 11:47:57;;;;;;;6.43;5.93;;;23.60;70.10;;;;;;4973830;28;20476;-88
2023/04/22 11:50:26;;;;;;;10.77;6.27;;;23.60;73.80;;;;;;4974960;28;20441;-82
2023/04/22 11:52:53;;;;;;;6.33;5.83;;;23.70;75.00;;;;;;4974207;28;20491;-82
2023/04/22 11:55:29;;;;;;;7.47;6.77;;;23.80;75.60;;;;;;4974060;28;20818;-87
2023/04/22 11:57:58;;;;;;;7.30;6.70;;;23.90;73.50;;;;;;4973889;28;20487;-87
2023/04/22 12:00:35;;;;;;;7.30;6.70;;;23.90;72.60;;;;;;4973835;28;20442;-83
2023/04/22 12:03:33;;;;;;;12.57;6.77;;;24.00;72.30;;;;;;4973560;28;20415;-87
2023/04/22 12:06:03;;;;;;;6.40;5.30;;;24.00;72.70;;;;;;4973619;28;21002;-87
2023/04/22 12:08:46;;;;;;;6.90;6.30;;;23.90;73.50;;;;;;4973480;28;20566;-87
2023/04/22 12:11:12;;;;;;;8.57;6.30;;;23.90;72.00;;;;;;4973433;28;20446;-83
2023/04/22 12:13:37;;;;;;;7.23;6.40;;;23.90;71.20;;;;;;4973606;28;20793;-83
2023/04/22 12:16:04;;;;;;;7.70;6.33;;;23.90;71.10;;;;;;4974614;28;20483;-83
2023/04/22 12:18:38;;;;;;;6.30;5.70;;;23.90;71.30;;;;;;4973816;28;20178;-83
2023/04/22 12:21:07;;;;;;;6.60;6.00;;;24.00;71.60;;;;;;4978511;28;20450;-83
2023/04/22 12:23:43;;;;;;;6.40;5.80;;;24.10;72.80;;;;;;4977343;28;20509;-83
2023/04/22 12:26:10;;;;;;;6.93;6.33;;;24.20;75.20;;;;;;4978465;28;20446;-82
2023/04/22 12:28:39;;;;;;;7.47;6.30;;;24.30;75.50;;;;;;4978442;28;20485;-83
2023/04/22 12:31:05;;;;;;;8.17;7.27;;;24.30;76.10;;;;;;4977126;28;20448;-84
2023/04/22 12:33:32;;;;;;;11.60;7.60;;;24.40;75.10;;;;;;4978284;28;20791;-83